sensor_id;sensor_type;location;lat;lon;timestamp;pressure;altitude;pressure_sealevel;temperature;humidity
71567;BME280;59403;47.456;19.120;2023-04-20T00:01:32;100269.91;;;9.34;100.00
71567;BME280;59403;47.456;19.120;2023-04-20T00:04:00;100270.34;;;9.30;100.00
71567;BME280;59403;47.456;19.120;2023-04-20T00:06:28;100269.75;;;9.36;100.00
71567;BME280;59403;47.456;19.120;2023-04-20T00:08:57;100271.41;;;9.37;100.00
71567;BME280;59403;47.456;19.120;2023-04-20T00:11:24;100271.88;;;9.32;100.00
71567;BME280;59403;47.456;19.120;2023-04-20T00:13:51;100275.25;;;9.25;100.00
71567;BME280;59403;47.456;19.120;2023-04-20T00:16:17;100266.22;;;9.27;100.00
71567;BME280;59403;47.456;19.120;2023-04-20T00:18:45;100264.09;;;9.31;100.00
71567;BME280;59403;47.456;19.120;2023-04-20T00:21:12;100259.78;;;9.30;100.00
71567;BME280;59403;47.456;19.120;2023-04-20T00:23:40;100262.19;;;9.23;100.00
71567;BME280;59403;47.456;19.120;2023-04-20T00:26:07;100263.19;;;9.22;100.00
71567;BME280;59403;47.456;19.120;2023-04-20T00:28:34;100263.87;;;9.24;100.00
71567;BME280;59403;47.456;19.120;2023-04-20T00:31:01;100259.94;;;9.28;100.00
71567;BME280;59403;47.456;19.120;2023-04-20T00:33:28;100266.44;;;9.34;100.00
71567;BME280;59403;47.456;19.120;2023-04-20T00:35:54;100271.34;;;9.29;100.00
71567;BME280;59403;47.456;19.120;2023-04-20T00:38:21;100267.47;;;9.23;100.00
71567;BME280;59403;47.456;19.120;2023-04-20T00:40:49;100265.69;;;9.24;100.00
71567;BME280;59403;47.456;19.120;2023-04-20T00:43:19;100259.03;;;9.19;100.00
71567;BME280;59403;47.456;19.120;2023-04-20T00:45:46;100262.66;;;9.18;100.00
71567;BME280;59403;47.456;19.120;2023-04-20T00:48:13;100259.72;;;9.22;100.00
71567;BME280;59403;47.456;19.120;2023-04-20T00:50:41;100259.50;;;9.15;100.00
71567;BME280;59403;47.456;19.120;2023-04-20T00:53:08;100264.25;;;9.11;100.00
71567;BME280;59403;47.456;19.120;2023-04-20T00:55:36;100255.47;;;9.11;100.00
71567;BME280;59403;47.456;19.120;2023-04-20T00:58:05;100260.09;;;9.09;100.00
71567;BME280;59403;47.456;19.120;2023-04-20T01:03:54;100252.62;;;9.04;100.00
71567;BME280;59403;47.456;19.120;2023-04-20T01:06:21;100253.59;;;9.03;100.00
71567;BME280;59403;47.456;19.120;2023-04-20T01:08:50;100254.88;;;8.99;100.00
71567;BME280;59403;47.456;19.120;2023-04-20T01:11:17;100255.56;;;9.01;100.00
71567;BME280;59403;47.456;19.120;2023-04-20T01:13:45;100256.31;;;8.94;100.00
71567;BME280;59403;47.456;19.120;2023-04-20T01:16:13;100249.66;;;8.90;100.00
71567;BME280;59403;47.456;19.120;2023-04-20T01:18:41;100249.12;;;8.86;100.00
71567;BME280;59403;47.456;19.120;2023-04-20T01:21:10;100248.00;;;8.89;100.00
71567;BME280;59403;47.456;19.120;2023-04-20T01:23:38;100249.12;;;8.86;100.00
71567;BME280;59403;47.456;19.120;2023-04-20T01:26:06;100246.34;;;8.88;100.00
71567;BME280;59403;47.456;19.120;2023-04-20T01:28:33;100249.75;;;8.80;100.00
71567;BME280;59403;47.456;19.120;2023-04-20T01:31:01;100251.09;;;8.84;100.00
71567;BME280;59403;47.456;19.120;2023-04-20T01:35:58;100256.97;;;8.78;100.00
71567;BME280;59403;47.456;19.120;2023-04-20T01:38:25;100248.75;;;8.81;100.00
71567;BME280;59403;47.456;19.120;2023-04-20T01:40:54;100249.22;;;8.77;100.00
71567;BME280;59403;47.456;19.120;2023-04-20T01:43:21;100246.56;;;8.77;100.00
71567;BME280;59403;47.456;19.120;2023-04-20T01:45:48;100248.13;;;8.70;100.00
71567;BME280;59403;47.456;19.120;2023-04-20T01:48:15;100257.72;;;8.71;100.00
71567;BME280;59403;47.456;19.120;2023-04-20T01:50:41;100243.53;;;8.72;100.00
71567;BME280;59403;47.456;19.120;2023-04-20T01:53:08;100246.75;;;8.66;100.00
71567;BME280;59403;47.456;19.120;2023-04-20T01:55:38;100249.72;;;8.63;100.00
71567;BME280;59403;47.456;19.120;2023-04-20T01:58:06;100244.59;;;8.61;100.00
71567;BME280;59403;47.456;19.120;2023-04-20T02:00:33;100245.16;;;8.55;100.00
71567;BME280;59403;47.456;19.120;2023-04-20T02:03:00;100256.41;;;8.57;100.00
71567;BME280;59403;47.456;19.120;2023-04-20T02:05:26;100255.19;;;8.52;100.00
71567;BME280;59403;47.456;19.120;2023-04-20T02:07:53;100261.59;;;8.49;100.00
71567;BME280;59403;47.456;19.120;2023-04-20T02:10:20;100258.97;;;8.49;100.00
71567;BME280;59403;47.456;19.120;2023-04-20T02:12:48;100258.97;;;8.49;100.00
71567;BME280;59403;47.456;19.120;2023-04-20T02:15:16;100259.22;;;8.46;100.00
71567;BME280;59403;47.456;19.120;2023-04-20T02:17:43;100255.50;;;8.39;100.00
71567;BME280;59403;47.456;19.120;2023-04-20T02:20:17;100262.22;;;8.34;100.00
71567;BME280;59403;47.456;19.120;2023-04-20T02:22:44;100253.47;;;8.33;100.00
71567;BME280;59403;47.456;19.120;2023-04-20T02:25:12;100261.94;;;8.37;100.00
71567;BME280;59403;47.456;19.120;2023-04-20T02:27:39;100261.97;;;8.27;100.00
71567;BME280;59403;47.456;19.120;2023-04-20T02:30:07;100265.69;;;8.34;100.00
71567;BME280;59403;47.456;19.120;2023-04-20T02:32:36;100264.59;;;8.27;100.00
71567;BME280;59403;47.456;19.120;2023-04-20T02:35:04;100264.19;;;8.22;100.00
71567;BME280;59403;47.456;19.120;2023-04-20T02:37:30;100263.38;;;8.22;100.00
71567;BME280;59403;47.456;19.120;2023-04-20T02:39:57;100258.38;;;8.28;100.00
71567;BME280;59403;47.456;19.120;2023-04-20T02:42:24;100269.44;;;8.22;100.00
71567;BME280;59403;47.456;19.120;2023-04-20T02:44:51;100267.81;;;8.21;100.00
71567;BME280;59403;47.456;19.120;2023-04-20T02:47:18;100262.44;;;8.13;100.00
71567;BME280;59403;47.456;19.120;2023-04-20T02:49:46;100261.44;;;8.14;100.00
71567;BME280;59403;47.456;19.120;2023-04-20T02:52:13;100264.22;;;8.13;100.00
71567;BME280;59403;47.456;19.120;2023-04-20T02:54:40;100268.09;;;8.18;100.00
71567;BME280;59403;47.456;19.120;2023-04-20T02:57:07;100265.47;;;8.08;100.00
71567;BME280;59403;47.456;19.120;2023-04-20T02:59:36;100270.66;;;8.00;100.00
71567;BME280;59403;47.456;19.120;2023-04-20T03:02:03;100276.34;;;7.96;100.00
71567;BME280;59403;47.456;19.120;2023-04-20T03:04:30;100266.63;;;8.06;100.00
71567;BME280;59403;47.456;19.120;2023-04-20T03:06:58;100273.00;;;7.94;100.00
71567;BME280;59403;47.456;19.120;2023-04-20T03:09:26;100272.06;;;7.95;100.00
71567;BME280;59403;47.456;19.120;2023-04-20T03:11:53;100282.19;;;7.90;100.00
71567;BME280;59403;47.456;19.120;2023-04-20T03:14:20;100287.87;;;7.85;100.00
71567;BME280;59403;47.456;19.120;2023-04-20T03:16:47;100279.28;;;7.93;100.00
71567;BME280;59403;47.456;19.120;2023-04-20T03:19:14;100282.50;;;7.87;100.00
71567;BME280;59403;47.456;19.120;2023-04-20T03:21:41;100272.62;;;7.89;100.00
71567;BME280;59403;47.456;19.120;2023-04-20T03:24:10;100281.28;;;7.53;100.00
71567;BME280;59403;47.456;19.120;2023-04-20T03:26:37;100268.34;;;7.78;100.00
71567;BME280;59403;47.456;19.120;2023-04-20T03:29:04;100275.97;;;7.81;100.00
71567;BME280;59403;47.456;19.120;2023-04-20T03:31:31;100278.91;;;7.69;100.00
71567;BME280;59403;47.456;19.120;2023-04-20T03:36:26;100279.16;;;7.75;100.00
71567;BME280;59403;47.456;19.120;2023-04-20T03:38:53;100281.28;;;7.62;100.00
71567;BME280;59403;47.456;19.120;2023-04-20T03:41:22;100278.53;;;7.45;100.00
71567;BME280;59403;47.456;19.120;2023-04-20T03:43:49;100280.59;;;7.60;100.00
71567;BME280;59403;47.456;19.120;2023-04-20T03:46:15;100282.56;;;7.49;100.00
71567;BME280;59403;47.456;19.120;2023-04-20T03:48:45;100279.78;;;7.50;100.00
71567;BME280;59403;47.456;19.120;2023-04-20T03:51:12;100283.34;;;7.68;100.00
71567;BME280;59403;47.456;19.120;2023-04-20T03:53:39;100273.97;;;7.47;100.00
71567;BME280;59403;47.456;19.120;2023-04-20T03:56:06;100276.97;;;7.61;100.00
71567;BME280;59403;47.456;19.120;2023-04-20T03:58:36;100294.69;;;7.78;100.00
71567;BME280;59403;47.456;19.120;2023-04-20T04:01:04;100295.94;;;7.84;100.00
71567;BME280;59403;47.456;19.120;2023-04-20T04:03:33;100304.13;;;7.90;100.00
71567;BME280;59403;47.456;19.120;2023-04-20T04:06:01;100302.44;;;7.89;100.00
71567;BME280;59403;47.456;19.120;2023-04-20T04:08:28;100300.66;;;7.90;100.00
71567;BME280;59403;47.456;19.120;2023-04-20T04:10:55;100292.75;;;7.90;100.00
71567;BME280;59403;47.456;19.120;2023-04-20T04:13:23;100301.22;;;7.93;100.00
71567;BME280;59403;47.456;19.120;2023-04-20T04:15:51;100294.41;;;7.91;100.00
71567;BME280;59403;47.456;19.120;2023-04-20T04:18:21;100294.84;;;7.86;100.00
71567;BME280;59403;47.456;19.120;2023-04-20T04:20:47;100298.72;;;7.82;100.00
71567;BME280;59403;47.456;19.120;2023-04-20T04:23:14;100295.69;;;7.87;100.00
71567;BME280;59403;47.456;19.120;2023-04-20T04:25:41;100306.34;;;7.85;100.00
71567;BME280;59403;47.456;19.120;2023-04-20T04:28:08;100303.28;;;7.90;100.00
71567;BME280;59403;47.456;19.120;2023-04-20T04:30:35;100298.28;;;7.96;100.00
71567;BME280;59403;47.456;19.120;2023-04-20T04:33:03;100294.09;;;8.03;100.00
71567;BME280;59403;47.456;19.120;2023-04-20T04:35:30;100296.81;;;8.21;100.00
71567;BME280;59403;47.456;19.120;2023-04-20T04:37:58;100297.78;;;8.20;100.00
71567;BME280;59403;47.456;19.120;2023-04-20T04:40:26;100296.53;;;8.34;100.00
71567;BME280;59403;47.456;19.120;2023-04-20T04:42:53;100294.69;;;8.44;100.00
71567;BME280;59403;47.456;19.120;2023-04-20T04:45:20;100291.25;;;8.61;100.00
71567;BME280;59403;47.456;19.120;2023-04-20T04:47:49;100293.56;;;8.73;100.00
71567;BME280;59403;47.456;19.120;2023-04-20T04:50:18;100302.06;;;9.12;100.00
71567;BME280;59403;47.456;19.120;2023-04-20T04:52:46;100300.63;;;9.17;100.00
71567;BME280;59403;47.456;19.120;2023-04-20T04:55:13;100292.69;;;9.35;100.00
71567;BME280;59403;47.456;19.120;2023-04-20T04:57:40;100301.69;;;9.25;100.00
71567;BME280;59403;47.456;19.120;2023-04-20T05:00:08;100307.12;;;9.23;100.00
71567;BME280;59403;47.456;19.120;2023-04-20T05:02:36;100304.78;;;9.38;100.00
71567;BME280;59403;47.456;19.120;2023-04-20T05:05:04;100303.41;;;9.69;100.00
71567;BME280;59403;47.456;19.120;2023-04-20T05:07:34;100300.91;;;10.10;100.00
71567;BME280;59403;47.456;19.120;2023-04-20T05:10:00;100305.28;;;10.02;100.00
71567;BME280;59403;47.456;19.120;2023-04-20T05:12:27;100308.37;;;9.97;100.00
71567;BME280;59403;47.456;19.120;2023-04-20T05:14:54;100309.16;;;10.07;100.00
71567;BME280;59403;47.456;19.120;2023-04-20T05:17:21;100315.06;;;10.27;100.00
71567;BME280;59403;47.456;19.120;2023-04-20T05:19:48;100316.19;;;10.50;100.00
71567;BME280;59403;47.456;19.120;2023-04-20T05:22:15;100329.06;;;10.79;97.70
71567;BME280;59403;47.456;19.120;2023-04-20T05:24:43;100321.97;;;10.87;97.11
71567;BME280;59403;47.456;19.120;2023-04-20T05:27:10;100325.03;;;11.08;97.14
71567;BME280;59403;47.456;19.120;2023-04-20T05:29:37;100326.03;;;11.31;94.84
71567;BME280;59403;47.456;19.120;2023-04-20T05:32:04;100322.22;;;11.10;93.02
71567;BME280;59403;47.456;19.120;2023-04-20T05:34:31;100322.22;;;11.26;93.99
71567;BME280;59403;47.456;19.120;2023-04-20T05:36:58;100333.53;;;11.36;92.52
71567;BME280;59403;47.456;19.120;2023-04-20T05:39:25;100324.91;;;11.34;93.05
71567;BME280;59403;47.456;19.120;2023-04-20T05:41:53;100331.38;;;11.56;91.85
71567;BME280;59403;47.456;19.120;2023-04-20T05:44:20;100334.47;;;11.19;91.69
71567;BME280;59403;47.456;19.120;2023-04-20T05:46:47;100339.50;;;11.54;91.03
71567;BME280;59403;47.456;19.120;2023-04-20T05:49:14;100336.84;;;11.54;90.53
71567;BME280;59403;47.456;19.120;2023-04-20T05:51:41;100332.69;;;11.43;90.73
71567;BME280;59403;47.456;19.120;2023-04-20T05:54:08;100332.06;;;11.50;90.19
71567;BME280;59403;47.456;19.120;2023-04-20T05:56:35;100341.78;;;11.25;90.36
71567;BME280;59403;47.456;19.120;2023-04-20T05:59:03;100340.84;;;11.58;89.18
71567;BME280;59403;47.456;19.120;2023-04-20T06:01:30;100338.37;;;11.65;88.10
71567;BME280;59403;47.456;19.120;2023-04-20T06:03:57;100339.88;;;11.75;88.32
71567;BME280;59403;47.456;19.120;2023-04-20T06:06:24;100340.06;;;11.74;87.80
71567;BME280;59403;47.456;19.120;2023-04-20T06:08:52;100339.06;;;11.99;86.37
71567;BME280;59403;47.456;19.120;2023-04-20T06:11:19;100345.37;;;11.90;86.49
71567;BME280;59403;47.456;19.120;2023-04-20T06:13:46;100338.34;;;12.13;85.86
71567;BME280;59403;47.456;19.120;2023-04-20T06:16:14;100347.78;;;12.23;85.55
71567;BME280;59403;47.456;19.120;2023-04-20T06:18:41;100342.47;;;12.39;84.87
71567;BME280;59403;47.456;19.120;2023-04-20T06:21:09;100345.66;;;12.19;83.13
71567;BME280;59403;47.456;19.120;2023-04-20T06:23:36;100338.47;;;12.43;82.88
71567;BME280;59403;47.456;19.120;2023-04-20T06:26:03;100336.44;;;12.53;83.12
71567;BME280;59403;47.456;19.120;2023-04-20T06:28:32;100352.37;;;12.53;81.39
71567;BME280;59403;47.456;19.120;2023-04-20T06:30:59;100344.38;;;12.62;82.23
71567;BME280;59403;47.456;19.120;2023-04-20T06:33:28;100347.75;;;12.55;81.50
71567;BME280;59403;47.456;19.120;2023-04-20T06:35:55;100344.38;;;12.70;81.38
71567;BME280;59403;47.456;19.120;2023-04-20T06:38:22;100347.97;;;12.85;80.22
71567;BME280;59403;47.456;19.120;2023-04-20T06:40:52;100347.50;;;12.73;79.75
71567;BME280;59403;47.456;19.120;2023-04-20T06:43:21;100345.47;;;12.83;80.05
71567;BME280;59403;47.456;19.120;2023-04-20T06:45:48;100350.75;;;12.91;78.38
71567;BME280;59403;47.456;19.120;2023-04-20T06:48:15;100341.72;;;13.08;78.20
71567;BME280;59403;47.456;19.120;2023-04-20T06:50:46;100339.13;;;12.92;78.65
71567;BME280;59403;47.456;19.120;2023-04-20T06:53:13;100352.16;;;13.18;77.61
71567;BME280;59403;47.456;19.120;2023-04-20T06:55:40;100341.91;;;13.07;76.21
71567;BME280;59403;47.456;19.120;2023-04-20T06:58:07;100339.63;;;13.26;75.38
71567;BME280;59403;47.456;19.120;2023-04-20T07:00:34;100338.13;;;13.54;75.53
71567;BME280;59403;47.456;19.120;2023-04-20T07:03:01;100345.44;;;13.52;73.48
71567;BME280;59403;47.456;19.120;2023-04-20T07:05:28;100343.84;;;13.66;72.47
71567;BME280;59403;47.456;19.120;2023-04-20T07:07:56;100350.47;;;13.70;72.65
71567;BME280;59403;47.456;19.120;2023-04-20T07:10:23;100350.69;;;13.83;72.80
71567;BME280;59403;47.456;19.120;2023-04-20T07:12:50;100345.78;;;13.95;72.67
71567;BME280;59403;47.456;19.120;2023-04-20T07:15:17;100346.94;;;14.15;71.89
71567;BME280;59403;47.456;19.120;2023-04-20T07:17:44;100346.38;;;14.05;71.77
71567;BME280;59403;47.456;19.120;2023-04-20T07:22:39;100353.19;;;14.22;71.14
71567;BME280;59403;47.456;19.120;2023-04-20T07:25:08;100361.63;;;14.33;69.64
71567;BME280;59403;47.456;19.120;2023-04-20T07:27:36;100347.19;;;14.57;68.75
71567;BME280;59403;47.456;19.120;2023-04-20T07:30:05;100359.78;;;14.77;68.53
71567;BME280;59403;47.456;19.120;2023-04-20T07:32:32;100357.50;;;14.74;67.06
71567;BME280;59403;47.456;19.120;2023-04-20T07:34:59;100354.19;;;14.72;67.94
71567;BME280;59403;47.456;19.120;2023-04-20T07:37:26;100357.66;;;14.58;65.87
71567;BME280;59403;47.456;19.120;2023-04-20T07:39:53;100356.19;;;14.70;67.27
71567;BME280;59403;47.456;19.120;2023-04-20T07:42:21;100354.00;;;14.89;65.52
71567;BME280;59403;47.456;19.120;2023-04-20T07:44:48;100358.03;;;14.99;66.25
71567;BME280;59403;47.456;19.120;2023-04-20T07:47:15;100349.56;;;14.66;65.25
71567;BME280;59403;47.456;19.120;2023-04-20T07:49:42;100354.72;;;14.97;64.21
71567;BME280;59403;47.456;19.120;2023-04-20T07:52:09;100361.94;;;15.18;64.17
71567;BME280;59403;47.456;19.120;2023-04-20T07:54:37;100354.22;;;15.08;63.54
71567;BME280;59403;47.456;19.120;2023-04-20T07:57:04;100355.25;;;15.07;63.05
71567;BME280;59403;47.456;19.120;2023-04-20T07:59:33;100353.34;;;15.51;62.68
71567;BME280;59403;47.456;19.120;2023-04-20T08:02:01;100353.84;;;15.82;62.24
71567;BME280;59403;47.456;19.120;2023-04-20T08:04:28;100356.16;;;15.92;61.45
71567;BME280;59403;47.456;19.120;2023-04-20T08:06:55;100356.81;;;15.52;59.64
71567;BME280;59403;47.456;19.120;2023-04-20T08:09:22;100359.37;;;15.60;59.50
71567;BME280;59403;47.456;19.120;2023-04-20T08:11:50;100353.06;;;15.88;60.09
71567;BME280;59403;47.456;19.120;2023-04-20T08:14:17;100353.78;;;15.55;57.98
71567;BME280;59403;47.456;19.120;2023-04-20T08:16:45;100354.88;;;16.09;57.44
71567;BME280;59403;47.456;19.120;2023-04-20T08:19:12;100351.22;;;15.89;58.08
71567;BME280;59403;47.456;19.120;2023-04-20T08:21:40;100354.78;;;16.24;57.26
71567;BME280;59403;47.456;19.120;2023-04-20T08:24:07;100346.78;;;15.54;57.73
71567;BME280;59403;47.456;19.120;2023-04-20T08:26:35;100349.09;;;16.33;58.15
71567;BME280;59403;47.456;19.120;2023-04-20T08:29:03;100357.31;;;16.32;56.91
71567;BME280;59403;47.456;19.120;2023-04-20T08:31:30;100348.72;;;16.64;57.72
71567;BME280;59403;47.456;19.120;2023-04-20T08:33:58;100350.59;;;16.42;57.78
71567;BME280;59403;47.456;19.120;2023-04-20T08:36:25;100349.37;;;16.72;56.94
71567;BME280;59403;47.456;19.120;2023-04-20T08:38:55;100346.41;;;16.95;56.53
71567;BME280;59403;47.456;19.120;2023-04-20T08:41:25;100339.72;;;16.71;56.42
71567;BME280;59403;47.456;19.120;2023-04-20T08:43:52;100346.88;;;17.05;56.32
71567;BME280;59403;47.456;19.120;2023-04-20T08:46:19;100347.91;;;17.11;56.35
71567;BME280;59403;47.456;19.120;2023-04-20T08:48:46;100339.97;;;17.30;55.98
71567;BME280;59403;47.456;19.120;2023-04-20T08:51:15;100340.72;;;17.11;53.50
71567;BME280;59403;47.456;19.120;2023-04-20T08:53:42;100337.78;;;16.99;54.15
71567;BME280;59403;47.456;19.120;2023-04-20T08:56:09;100345.78;;;16.93;53.09
71567;BME280;59403;47.456;19.120;2023-04-20T08:58:36;100334.12;;;17.14;53.54
71567;BME280;59403;47.456;19.120;2023-04-20T09:01:07;100343.34;;;17.58;53.10
71567;BME280;59403;47.456;19.120;2023-04-20T09:03:35;100338.41;;;17.55;52.68
71567;BME280;59403;47.456;19.120;2023-04-20T09:06:03;100354.25;;;17.57;52.58
71567;BME280;59403;47.456;19.120;2023-04-20T09:08:36;100340.31;;;17.08;53.22
71567;BME280;59403;47.456;19.120;2023-04-20T09:11:04;100346.00;;;17.52;52.84
71567;BME280;59403;47.456;19.120;2023-04-20T09:13:31;100340.66;;;17.58;52.03
71567;BME280;59403;47.456;19.120;2023-04-20T09:16:08;100338.25;;;17.96;50.88
71567;BME280;59403;47.456;19.120;2023-04-20T09:18:37;100337.81;;;17.99;50.52
71567;BME280;59403;47.456;19.120;2023-04-20T09:21:08;100345.03;;;17.92;49.00
71567;BME280;59403;47.456;19.120;2023-04-20T09:23:36;100338.59;;;17.60;48.95
71567;BME280;59403;47.456;19.120;2023-04-20T09:26:03;100338.84;;;17.85;49.16
71567;BME280;59403;47.456;19.120;2023-04-20T09:28:35;100335.56;;;18.09;49.23
71567;BME280;59403;47.456;19.120;2023-04-20T09:31:03;100334.34;;;18.05;48.84
71567;BME280;59403;47.456;19.120;2023-04-20T09:33:30;100333.28;;;18.06;48.63
71567;BME280;59403;47.456;19.120;2023-04-20T09:36:03;100333.50;;;18.11;45.06
71567;BME280;59403;47.456;19.120;2023-04-20T09:38:30;100335.16;;;18.12;44.71
71567;BME280;59403;47.456;19.120;2023-04-20T09:40:59;100329.16;;;17.58;45.48
71567;BME280;59403;47.456;19.120;2023-04-20T09:43:28;100330.19;;;18.09;46.08
71567;BME280;59403;47.456;19.120;2023-04-20T09:45:56;100328.75;;;18.20;47.64
71567;BME280;59403;47.456;19.120;2023-04-20T09:48:23;100331.63;;;18.44;46.65
71567;BME280;59403;47.456;19.120;2023-04-20T09:50:51;100331.00;;;18.49;47.46
71567;BME280;59403;47.456;19.120;2023-04-20T09:53:19;100334.41;;;18.82;46.21
71567;BME280;59403;47.456;19.120;2023-04-20T09:55:47;100331.72;;;18.88;45.13
71567;BME280;59403;47.456;19.120;2023-04-20T09:58:16;100323.75;;;18.56;46.60
71567;BME280;59403;47.456;19.120;2023-04-20T10:00:44;100322.97;;;18.36;46.76
71567;BME280;59403;47.456;19.120;2023-04-20T10:03:14;100330.56;;;18.65;46.52
71567;BME280;59403;47.456;19.120;2023-04-20T10:05:41;100315.13;;;18.34;47.17
71567;BME280;59403;47.456;19.120;2023-04-20T10:08:08;100320.91;;;19.08;46.20
71567;BME280;59403;47.456;19.120;2023-04-20T10:10:42;100312.09;;;18.94;47.10
71567;BME280;59403;47.456;19.120;2023-04-20T10:13:10;100306.22;;;18.60;46.83
71567;BME280;59403;47.456;19.120;2023-04-20T10:15:39;100301.56;;;17.96;46.74
71567;BME280;59403;47.456;19.120;2023-04-20T10:18:17;100310.69;;;18.79;45.82
71567;BME280;59403;47.456;19.120;2023-04-20T10:20:47;100306.13;;;18.86;43.84
71567;BME280;59403;47.456;19.120;2023-04-20T10:23:15;100300.50;;;18.94;44.29
71567;BME280;59403;47.456;19.120;2023-04-20T10:25:54;100300.31;;;18.19;46.16
71567;BME280;59403;47.456;19.120;2023-04-20T10:28:21;100303.91;;;18.76;44.95
71567;BME280;59403;47.456;19.120;2023-04-20T10:30:52;100305.47;;;19.41;44.89
71567;BME280;59403;47.456;19.120;2023-04-20T10:33:19;100300.75;;;19.68;44.77
71567;BME280;59403;47.456;19.120;2023-04-20T10:35:48;100295.44;;;19.55;43.71
71567;BME280;59403;47.456;19.120;2023-04-20T10:38:27;100296.50;;;19.16;45.31
71567;BME280;59403;47.456;19.120;2023-04-20T10:40:54;100291.00;;;18.21;46.68
71567;BME280;59403;47.456;19.120;2023-04-20T10:43:22;100294.34;;;17.90;47.04
71567;BME280;59403;47.456;19.120;2023-04-20T10:45:49;100296.81;;;17.92;46.83
71567;BME280;59403;47.456;19.120;2023-04-20T10:48:18;100294.56;;;17.82;47.28
71567;BME280;59403;47.456;19.120;2023-04-20T10:50:44;100296.53;;;18.52;46.59
71567;BME280;59403;47.456;19.120;2023-04-20T10:53:18;100284.63;;;18.99;44.96
71567;BME280;59403;47.456;19.120;2023-04-20T10:55:46;100280.44;;;19.47;44.02
71567;BME280;59403;47.456;19.120;2023-04-20T10:58:23;100281.06;;;19.05;42.77
71567;BME280;59403;47.456;19.120;2023-04-20T11:00:57;100278.38;;;19.05;43.38
71567;BME280;59403;47.456;19.120;2023-04-20T11:03:26;100273.41;;;19.46;42.08
71567;BME280;59403;47.456;19.120;2023-04-20T11:05:53;100266.34;;;18.76;43.54
71567;BME280;59403;47.456;19.120;2023-04-20T11:08:21;100270.38;;;18.22;45.24
71567;BME280;59403;47.456;19.120;2023-04-20T11:10:48;100269.34;;;18.93;45.09
71567;BME280;59403;47.456;19.120;2023-04-20T11:13:19;100273.12;;;19.16;44.32
71567;BME280;59403;47.456;19.120;2023-04-20T11:15:46;100270.25;;;19.56;43.55
71567;BME280;59403;47.456;19.120;2023-04-20T11:18:13;100261.03;;;19.94;43.58
71567;BME280;59403;47.456;19.120;2023-04-20T11:20:50;100264.75;;;19.69;42.88
71567;BME280;59403;47.456;19.120;2023-04-20T11:23:18;100257.47;;;19.76;41.19
71567;BME280;59403;47.456;19.120;2023-04-20T11:25:51;100262.53;;;19.90;41.50
71567;BME280;59403;47.456;19.120;2023-04-20T11:28:18;100260.03;;;20.13;41.77
71567;BME280;59403;47.456;19.120;2023-04-20T11:30:45;100257.22;;;19.84;42.29
71567;BME280;59403;47.456;19.120;2023-04-20T11:33:14;100250.81;;;20.27;40.38
71567;BME280;59403;47.456;19.120;2023-04-20T11:35:42;100254.16;;;19.74;42.62
71567;BME280;59403;47.456;19.120;2023-04-20T11:38:10;100255.22;;;19.10;44.14
71567;BME280;59403;47.456;19.120;2023-04-20T11:40:38;100255.81;;;18.75;44.06
71567;BME280;59403;47.456;19.120;2023-04-20T11:43:05;100254.94;;;19.25;43.04
71567;BME280;59403;47.456;19.120;2023-04-20T11:45:32;100248.31;;;18.90;43.93
71567;BME280;59403;47.456;19.120;2023-04-20T11:47:59;100258.03;;;19.29;43.92
71567;BME280;59403;47.456;19.120;2023-04-20T11:50:26;100255.88;;;19.06;43.23
71567;BME280;59403;47.456;19.120;2023-04-20T11:52:53;100248.97;;;19.54;43.88
71567;BME280;59403;47.456;19.120;2023-04-20T11:55:22;100252.56;;;19.42;42.93
71567;BME280;59403;47.456;19.120;2023-04-20T11:57:49;100254.72;;;18.89;41.68
71567;BME280;59403;47.456;19.120;2023-04-20T12:00:16;100253.91;;;18.82;43.05
71567;BME280;59403;47.456;19.120;2023-04-20T12:02:44;100252.44;;;19.23;42.19
71567;BME280;59403;47.456;19.120;2023-04-20T12:05:11;100245.72;;;19.95;41.55
71567;BME280;59403;47.456;19.120;2023-04-20T12:07:38;100240.34;;;20.38;41.30
71567;BME280;59403;47.456;19.120;2023-04-20T12:10:06;100239.44;;;20.44;40.28
71567;BME280;59403;47.456;19.120;2023-04-20T12:12:35;100241.38;;;20.37;38.75
71567;BME280;59403;47.456;19.120;2023-04-20T12:15:03;100235.84;;;20.68;40.50
71567;BME280;59403;47.456;19.120;2023-04-20T12:17:31;100241.31;;;20.00;40.29
71567;BME280;59403;47.456;19.120;2023-04-20T12:19:58;100233.56;;;19.92;38.72
71567;BME280;59403;47.456;19.120;2023-04-20T12:22:25;100234.50;;;19.80;39.46
71567;BME280;59403;47.456;19.120;2023-04-20T12:24:52;100232.88;;;19.16;40.15
71567;BME280;59403;47.456;19.120;2023-04-20T12:27:19;100242.06;;;19.02;41.05
71567;BME280;59403;47.456;19.120;2023-04-20T12:29:48;100235.00;;;19.08;41.22
71567;BME280;59403;47.456;19.120;2023-04-20T12:32:15;100236.13;;;18.87;40.43
71567;BME280;59403;47.456;19.120;2023-04-20T12:34:42;100228.84;;;19.01;41.80
71567;BME280;59403;47.456;19.120;2023-04-20T12:37:08;100230.44;;;19.08;41.38
71567;BME280;59403;47.456;19.120;2023-04-20T12:39:36;100231.09;;;19.42;40.96
71567;BME280;59403;47.456;19.120;2023-04-20T12:42:03;100227.94;;;20.18;40.09
71567;BME280;59403;47.456;19.120;2023-04-20T12:44:30;100219.63;;;20.74;40.33
71567;BME280;59403;47.456;19.120;2023-04-20T12:46:58;100226.94;;;21.15;39.09
71567;BME280;59403;47.456;19.120;2023-04-20T12:49:25;100222.84;;;21.12;37.13
71567;BME280;59403;47.456;19.120;2023-04-20T12:51:52;100225.38;;;20.42;37.74
71567;BME280;59403;47.456;19.120;2023-04-20T12:54:18;100225.16;;;19.33;39.38